Hlavní strana
METAR-TAF:

METAR-TAF

Letiště :

Sanford-Lee County Regional Airport

Sanford, Severní Karolína, Spojené státy americké

zeměpisná šířka: 35-34-57N, zeměpisná délka: 079-06-05W, výška: 75 m

Aktuální stav počasí

Zpráva byla vytvořena před 22 minutami, v 10:35 UTC
Severovýchodní vítr 4 kt
Teplota 5°C
Vlhkost vzduchu 87%
Tlak 1022 hPa
Viditelnost: 16.1 km
Zataženo ve výšce 900 ft

METAR: KTTA 241035Z AUTO 04004KT 10SM OVC009 05/03 A3019 RMK AO2 T00450030

Čas: 05:57 (10:57 UTC)


TAF: chybějící

Stav a předpovědi počasí z více než 4 000 letišť (zprávy METAR a TAF).

Červené a žluté tečky na mapě představují dostupné meteorologické stanice.

Když kurzor umístíte na tečku, zobrazí se název stanice.

Pak kliknutím zobrazíte stav a předpověď počasí.

Chcete-li změnit mapu, kliknutím na zelené tlačítko se znaménkem +mapu přiblížíte, kliknutím na zelené tlačítko se znaménkem – mapu oddálíte a kliknutím na zelené šipky přejdete na sousední mapy.


METAR-TAF: